sensor_id;sensor_type;location;lat;lon;timestamp;pressure;altitude;pressure_sealevel;temperature
68939;BMP180;59064;45.294;11.816;2022-11-15T00:02:21;101716.40;;;9.20
68939;BMP180;59064;45.294;11.816;2022-11-15T00:04:46;101719.60;;;9.20
68939;BMP180;59064;45.294;11.816;2022-11-15T00:07:12;101714.60;;;9.20
68939;BMP180;59064;45.294;11.816;2022-11-15T00:09:37;101709.80;;;9.20
68939;BMP180;59064;45.294;11.816;2022-11-15T00:12:03;101715.20;;;9.20
68939;BMP180;59064;45.294;11.816;2022-11-15T00:14:29;101714.40;;;9.20
68939;BMP180;59064;45.294;11.816;2022-11-15T00:16:54;101712.60;;;9.10
68939;BMP180;59064;45.294;11.816;2022-11-15T00:19:20;101704.00;;;9.00
68939;BMP180;59064;45.294;11.816;2022-11-15T00:21:45;101698.60;;;8.90
68939;BMP180;59064;45.294;11.816;2022-11-15T00:24:10;101699.80;;;8.80
68939;BMP180;59064;45.294;11.816;2022-11-15T00:26:36;101698.20;;;8.70
68939;BMP180;59064;45.294;11.816;2022-11-15T00:29:01;101692.40;;;8.60
68939;BMP180;59064;45.294;11.816;2022-11-15T00:31:27;101694.00;;;8.50
68939;BMP180;59064;45.294;11.816;2022-11-15T00:33:52;101697.40;;;8.50
68939;BMP180;59064;45.294;11.816;2022-11-15T00:36:18;101699.60;;;8.56
68939;BMP180;59064;45.294;11.816;2022-11-15T00:38:44;101689.40;;;8.50
68939;BMP180;59064;45.294;11.816;2022-11-15T00:41:09;101693.40;;;8.48
68939;BMP180;59064;45.294;11.816;2022-11-15T00:43:35;101689.00;;;8.40
68939;BMP180;59064;45.294;11.816;2022-11-15T00:46:01;101682.80;;;8.30
68939;BMP180;59064;45.294;11.816;2022-11-15T00:48:28;101685.60;;;8.24
68939;BMP180;59064;45.294;11.816;2022-11-15T00:50:53;101681.80;;;8.20
68939;BMP180;59064;45.294;11.816;2022-11-15T00:53:19;101681.20;;;8.10
68939;BMP180;59064;45.294;11.816;2022-11-15T00:55:44;101681.60;;;8.04
68939;BMP180;59064;45.294;11.816;2022-11-15T00:58:10;101683.60;;;8.00
68939;BMP180;59064;45.294;11.816;2022-11-15T01:00:36;101678.60;;;8.00
68939;BMP180;59064;45.294;11.816;2022-11-15T01:03:01;101679.80;;;8.00
68939;BMP180;59064;45.294;11.816;2022-11-15T01:05:27;101671.80;;;7.94
68939;BMP180;59064;45.294;11.816;2022-11-15T01:07:56;101679.80;;;7.90
68939;BMP180;59064;45.294;11.816;2022-11-15T01:10:23;101682.80;;;7.80
68939;BMP180;59064;45.294;11.816;2022-11-15T01:12:49;101680.20;;;7.80
68939;BMP180;59064;45.294;11.816;2022-11-15T01:15:15;101675.40;;;7.70
68939;BMP180;59064;45.294;11.816;2022-11-15T01:17:40;101677.60;;;7.70
68939;BMP180;59064;45.294;11.816;2022-11-15T01:20:07;101677.40;;;7.70
68939;BMP180;59064;45.294;11.816;2022-11-15T01:22:32;101678.80;;;7.70
68939;BMP180;59064;45.294;11.816;2022-11-15T01:24:58;101677.80;;;7.80
68939;BMP180;59064;45.294;11.816;2022-11-15T01:27:24;101681.80;;;7.90
68939;BMP180;59064;45.294;11.816;2022-11-15T01:29:49;101683.60;;;7.92
68939;BMP180;59064;45.294;11.816;2022-11-15T01:32:15;101681.40;;;8.00
68939;BMP180;59064;45.294;11.816;2022-11-15T01:34:40;101678.00;;;8.00
68939;BMP180;59064;45.294;11.816;2022-11-15T01:37:06;101676.00;;;8.00
68939;BMP180;59064;45.294;11.816;2022-11-15T01:39:32;101676.60;;;8.00
68939;BMP180;59064;45.294;11.816;2022-11-15T01:41:57;101672.20;;;8.00
68939;BMP180;59064;45.294;11.816;2022-11-15T01:44:51;101672.60;;;8.00
68939;BMP180;59064;45.294;11.816;2022-11-15T01:47:19;101667.40;;;8.00
68939;BMP180;59064;45.294;11.816;2022-11-15T01:50:02;101669.80;;;8.00
68939;BMP180;59064;45.294;11.816;2022-11-15T01:52:30;101670.00;;;8.00
68939;BMP180;59064;45.294;11.816;2022-11-15T01:55:09;101665.00;;;8.10
68939;BMP180;59064;45.294;11.816;2022-11-15T01:57:37;101666.40;;;8.10
68939;BMP180;59064;45.294;11.816;2022-11-15T02:00:04;101666.00;;;8.10
68939;BMP180;59064;45.294;11.816;2022-11-15T02:02:31;101661.00;;;8.10
68939;BMP180;59064;45.294;11.816;2022-11-15T02:04:57;101658.80;;;8.06
68939;BMP180;59064;45.294;11.816;2022-11-15T02:07:23;101647.80;;;8.10
68939;BMP180;59064;45.294;11.816;2022-11-15T02:09:49;101643.80;;;8.18
68939;BMP180;59064;45.294;11.816;2022-11-15T02:12:19;101641.60;;;8.20
68939;BMP180;59064;45.294;11.816;2022-11-15T02:14:50;101633.00;;;8.20
68939;BMP180;59064;45.294;11.816;2022-11-15T02:34:32;101621.80;;;8.10
68939;BMP180;59064;45.294;11.816;2022-11-15T02:42:35;101622.00;;;7.80
68939;BMP180;59064;45.294;11.816;2022-11-15T02:45:24;101613.20;;;7.80
68939;BMP180;59064;45.294;11.816;2022-11-15T02:47:54;101618.00;;;7.70
68939;BMP180;59064;45.294;11.816;2022-11-15T02:50:24;101609.40;;;7.62
68939;BMP180;59064;45.294;11.816;2022-11-15T02:52:51;101615.80;;;7.56
68939;BMP180;59064;45.294;11.816;2022-11-15T02:55:30;101613.60;;;7.50
68939;BMP180;59064;45.294;11.816;2022-11-15T03:00:34;101603.60;;;7.30
68939;BMP180;59064;45.294;11.816;2022-11-15T03:06:10;101604.60;;;7.20
68939;BMP180;59064;45.294;11.816;2022-11-15T03:11:19;101600.60;;;7.10
68939;BMP180;59064;45.294;11.816;2022-11-15T03:13:58;101598.00;;;7.10
68939;BMP180;59064;45.294;11.816;2022-11-15T03:19:20;101594.60;;;7.10
68939;BMP180;59064;45.294;11.816;2022-11-15T03:21:50;101595.00;;;7.10
68939;BMP180;59064;45.294;11.816;2022-11-15T03:24:19;101593.20;;;7.00
68939;BMP180;59064;45.294;11.816;2022-11-15T03:26:48;101598.40;;;7.00
68939;BMP180;59064;45.294;11.816;2022-11-15T03:29:26;101598.40;;;6.96
68939;BMP180;59064;45.294;11.816;2022-11-15T03:31:59;101596.40;;;6.90
68939;BMP180;59064;45.294;11.816;2022-11-15T03:34:44;101580.80;;;6.90
68939;BMP180;59064;45.294;11.816;2022-11-15T03:37:13;101579.60;;;6.80
68939;BMP180;59064;45.294;11.816;2022-11-15T03:39:39;101584.20;;;6.78
68939;BMP180;59064;45.294;11.816;2022-11-15T03:42:21;101585.60;;;6.70
68939;BMP180;59064;45.294;11.816;2022-11-15T03:45:02;101592.60;;;6.70
68939;BMP180;59064;45.294;11.816;2022-11-15T03:47:36;101596.20;;;6.70
68939;BMP180;59064;45.294;11.816;2022-11-15T03:50:16;101596.60;;;6.70
68939;BMP180;59064;45.294;11.816;2022-11-15T03:52:44;101600.80;;;6.70
68939;BMP180;59064;45.294;11.816;2022-11-15T03:55:14;101589.40;;;6.80
68939;BMP180;59064;45.294;11.816;2022-11-15T03:57:41;101592.60;;;6.80
68939;BMP180;59064;45.294;11.816;2022-11-15T04:00:07;101594.00;;;6.80
68939;BMP180;59064;45.294;11.816;2022-11-15T04:02:33;101593.20;;;6.80
68939;BMP180;59064;45.294;11.816;2022-11-15T04:04:58;101591.60;;;6.80
68939;BMP180;59064;45.294;11.816;2022-11-15T04:07:24;101592.40;;;6.80
68939;BMP180;59064;45.294;11.816;2022-11-15T04:09:49;101589.20;;;6.80
68939;BMP180;59064;45.294;11.816;2022-11-15T04:12:30;101590.80;;;6.84
68939;BMP180;59064;45.294;11.816;2022-11-15T04:15:05;101597.40;;;6.80
68939;BMP180;59064;45.294;11.816;2022-11-15T04:17:39;101592.60;;;6.72
68939;BMP180;59064;45.294;11.816;2022-11-15T04:22:56;101591.20;;;6.70
68939;BMP180;59064;45.294;11.816;2022-11-15T04:25:41;101585.00;;;6.60
68939;BMP180;59064;45.294;11.816;2022-11-15T04:28:07;101584.00;;;6.60
68939;BMP180;59064;45.294;11.816;2022-11-15T04:30:33;101592.60;;;6.54
68939;BMP180;59064;45.294;11.816;2022-11-15T04:32:59;101598.40;;;6.50
68939;BMP180;59064;45.294;11.816;2022-11-15T04:35:24;101594.80;;;6.40
68939;BMP180;59064;45.294;11.816;2022-11-15T04:37:50;101586.20;;;6.40
68939;BMP180;59064;45.294;11.816;2022-11-15T04:40:15;101579.40;;;6.30
68939;BMP180;59064;45.294;11.816;2022-11-15T04:42:41;101577.80;;;6.30
68939;BMP180;59064;45.294;11.816;2022-11-15T04:45:10;101579.00;;;6.20
68939;BMP180;59064;45.294;11.816;2022-11-15T04:47:36;101580.00;;;6.20
68939;BMP180;59064;45.294;11.816;2022-11-15T04:50:01;101580.40;;;6.20
68939;BMP180;59064;45.294;11.816;2022-11-15T04:52:27;101583.60;;;6.20
68939;BMP180;59064;45.294;11.816;2022-11-15T04:54:52;101579.20;;;6.16
68939;BMP180;59064;45.294;11.816;2022-11-15T04:57:18;101582.60;;;6.10
68939;BMP180;59064;45.294;11.816;2022-11-15T04:59:44;101588.40;;;6.10
68939;BMP180;59064;45.294;11.816;2022-11-15T05:02:09;101586.00;;;6.10
68939;BMP180;59064;45.294;11.816;2022-11-15T05:04:34;101583.80;;;6.20
68939;BMP180;59064;45.294;11.816;2022-11-15T05:07:00;101573.60;;;6.20
68939;BMP180;59064;45.294;11.816;2022-11-15T05:09:26;101568.40;;;6.20
68939;BMP180;59064;45.294;11.816;2022-11-15T05:11:52;101569.40;;;6.20
68939;BMP180;59064;45.294;11.816;2022-11-15T05:14:17;101572.20;;;6.20
68939;BMP180;59064;45.294;11.816;2022-11-15T05:16:43;101568.80;;;6.30
68939;BMP180;59064;45.294;11.816;2022-11-15T05:19:08;101561.60;;;6.20
68939;BMP180;59064;45.294;11.816;2022-11-15T05:21:34;101560.80;;;6.10
68939;BMP180;59064;45.294;11.816;2022-11-15T05:24:01;101559.00;;;6.00
68939;BMP180;59064;45.294;11.816;2022-11-15T05:26:27;101566.40;;;6.00
68939;BMP180;59064;45.294;11.816;2022-11-15T05:28:54;101575.20;;;5.94
68939;BMP180;59064;45.294;11.816;2022-11-15T05:31:21;101569.80;;;5.90
68939;BMP180;59064;45.294;11.816;2022-11-15T05:33:48;101568.40;;;6.00
68939;BMP180;59064;45.294;11.816;2022-11-15T05:36:31;101569.20;;;6.00
68939;BMP180;59064;45.294;11.816;2022-11-15T05:38:59;101568.40;;;6.00
68939;BMP180;59064;45.294;11.816;2022-11-15T05:41:39;101561.80;;;6.00
68939;BMP180;59064;45.294;11.816;2022-11-15T05:44:09;101560.80;;;5.90
68939;BMP180;59064;45.294;11.816;2022-11-15T05:46:37;101562.60;;;6.00
68939;BMP180;59064;45.294;11.816;2022-11-15T05:49:05;101566.00;;;6.00
68939;BMP180;59064;45.294;11.816;2022-11-15T05:51:31;101569.40;;;6.08
68939;BMP180;59064;45.294;11.816;2022-11-15T05:53:58;101578.80;;;6.10
68939;BMP180;59064;45.294;11.816;2022-11-15T05:56:24;101580.20;;;6.12
68939;BMP180;59064;45.294;11.816;2022-11-15T05:58:52;101585.20;;;6.20
68939;BMP180;59064;45.294;11.816;2022-11-15T06:01:19;101590.00;;;6.20
68939;BMP180;59064;45.294;11.816;2022-11-15T06:03:44;101592.80;;;6.22
68939;BMP180;59064;45.294;11.816;2022-11-15T06:06:10;101590.20;;;6.30
68939;BMP180;59064;45.294;11.816;2022-11-15T06:08:35;101592.80;;;6.30
68939;BMP180;59064;45.294;11.816;2022-11-15T06:11:05;101599.20;;;6.30
68939;BMP180;59064;45.294;11.816;2022-11-15T06:13:33;101601.60;;;6.30
68939;BMP180;59064;45.294;11.816;2022-11-15T06:15:59;101593.40;;;6.30
68939;BMP180;59064;45.294;11.816;2022-11-15T06:18:25;101590.20;;;6.30
68939;BMP180;59064;45.294;11.816;2022-11-15T06:20:51;101588.60;;;6.40
68939;BMP180;59064;45.294;11.816;2022-11-15T06:23:17;101584.20;;;6.40
68939;BMP180;59064;45.294;11.816;2022-11-15T06:25:42;101584.40;;;6.46
68939;BMP180;59064;45.294;11.816;2022-11-15T06:28:08;101592.20;;;6.50
68939;BMP180;59064;45.294;11.816;2022-11-15T06:30:34;101592.20;;;6.42
68939;BMP180;59064;45.294;11.816;2022-11-15T06:33:04;101587.20;;;6.40
68939;BMP180;59064;45.294;11.816;2022-11-15T06:35:32;101594.60;;;6.40
68939;BMP180;59064;45.294;11.816;2022-11-15T06:38:07;101600.80;;;6.40
68939;BMP180;59064;45.294;11.816;2022-11-15T06:40:34;101602.00;;;6.40
68939;BMP180;59064;45.294;11.816;2022-11-15T06:43:00;101605.60;;;6.40
68939;BMP180;59064;45.294;11.816;2022-11-15T06:45:26;101608.00;;;6.40
68939;BMP180;59064;45.294;11.816;2022-11-15T06:47:53;101612.40;;;6.40
68939;BMP180;59064;45.294;11.816;2022-11-15T06:50:19;101611.20;;;6.50
68939;BMP180;59064;45.294;11.816;2022-11-15T06:52:44;101607.80;;;6.50
68939;BMP180;59064;45.294;11.816;2022-11-15T06:55:10;101610.20;;;6.60
68939;BMP180;59064;45.294;11.816;2022-11-15T06:57:36;101614.60;;;6.60
68939;BMP180;59064;45.294;11.816;2022-11-15T07:00:06;101615.20;;;6.70
68939;BMP180;59064;45.294;11.816;2022-11-15T07:02:32;101620.00;;;6.70
68939;BMP180;59064;45.294;11.816;2022-11-15T07:04:57;101614.40;;;6.70
68939;BMP180;59064;45.294;11.816;2022-11-15T07:07:23;101610.20;;;6.78
68939;BMP180;59064;45.294;11.816;2022-11-15T07:09:48;101611.80;;;6.80
68939;BMP180;59064;45.294;11.816;2022-11-15T07:12:14;101605.00;;;6.80
68939;BMP180;59064;45.294;11.816;2022-11-15T07:14:39;101608.00;;;6.80
68939;BMP180;59064;45.294;11.816;2022-11-15T07:17:05;101604.80;;;6.90
68939;BMP180;59064;45.294;11.816;2022-11-15T07:19:31;101607.40;;;6.90
68939;BMP180;59064;45.294;11.816;2022-11-15T07:21:56;101602.20;;;7.00
68939;BMP180;59064;45.294;11.816;2022-11-15T07:24:22;101602.60;;;7.10
68939;BMP180;59064;45.294;11.816;2022-11-15T07:26:47;101607.80;;;7.10
68939;BMP180;59064;45.294;11.816;2022-11-15T07:29:13;101610.40;;;7.10
68939;BMP180;59064;45.294;11.816;2022-11-15T07:31:38;101621.60;;;7.10
68939;BMP180;59064;45.294;11.816;2022-11-15T07:34:04;101623.20;;;7.20
68939;BMP180;59064;45.294;11.816;2022-11-15T07:36:29;101623.00;;;7.20
68939;BMP180;59064;45.294;11.816;2022-11-15T07:38:55;101618.40;;;7.20
68939;BMP180;59064;45.294;11.816;2022-11-15T07:41:21;101617.00;;;7.40
68939;BMP180;59064;45.294;11.816;2022-11-15T07:43:47;101621.00;;;7.60
68939;BMP180;59064;45.294;11.816;2022-11-15T07:46:12;101620.40;;;7.68
68939;BMP180;59064;45.294;11.816;2022-11-15T07:48:39;101618.00;;;7.70
68939;BMP180;59064;45.294;11.816;2022-11-15T07:51:06;101612.00;;;7.70
68939;BMP180;59064;45.294;11.816;2022-11-15T07:53:32;101607.40;;;7.70
68939;BMP180;59064;45.294;11.816;2022-11-15T07:55:58;101610.60;;;7.70
68939;BMP180;59064;45.294;11.816;2022-11-15T07:58:23;101611.00;;;7.70
68939;BMP180;59064;45.294;11.816;2022-11-15T08:00:49;101616.80;;;7.70
68939;BMP180;59064;45.294;11.816;2022-11-15T08:03:16;101613.80;;;7.80
68939;BMP180;59064;45.294;11.816;2022-11-15T08:05:43;101611.20;;;7.82
68939;BMP180;59064;45.294;11.816;2022-11-15T08:08:15;101606.20;;;7.90
68939;BMP180;59064;45.294;11.816;2022-11-15T08:10:40;101604.60;;;7.90
68939;BMP180;59064;45.294;11.816;2022-11-15T08:13:08;101607.00;;;7.80
68939;BMP180;59064;45.294;11.816;2022-11-15T08:15:35;101608.60;;;7.80
68939;BMP180;59064;45.294;11.816;2022-11-15T08:18:08;101614.00;;;7.80
68939;BMP180;59064;45.294;11.816;2022-11-15T08:20:35;101611.60;;;7.70
68939;BMP180;59064;45.294;11.816;2022-11-15T08:23:02;101615.80;;;7.80
68939;BMP180;59064;45.294;11.816;2022-11-15T08:25:29;101619.00;;;7.80
68939;BMP180;59064;45.294;11.816;2022-11-15T08:27:58;101615.80;;;7.80
68939;BMP180;59064;45.294;11.816;2022-11-15T08:30:24;101617.20;;;7.80
68939;BMP180;59064;45.294;11.816;2022-11-15T08:32:52;101607.40;;;7.88
68939;BMP180;59064;45.294;11.816;2022-11-15T08:35:19;101609.20;;;7.90
68939;BMP180;59064;45.294;11.816;2022-11-15T08:37:45;101622.80;;;7.90
68939;BMP180;59064;45.294;11.816;2022-11-15T08:40:11;101623.60;;;7.90
68939;BMP180;59064;45.294;11.816;2022-11-15T08:42:37;101617.20;;;7.84
68939;BMP180;59064;45.294;11.816;2022-11-15T08:45:03;101618.40;;;7.80
68939;BMP180;59064;45.294;11.816;2022-11-15T08:47:29;101622.60;;;7.90
68939;BMP180;59064;45.294;11.816;2022-11-15T08:49:55;101620.20;;;7.90
68939;BMP180;59064;45.294;11.816;2022-11-15T08:52:21;101612.40;;;7.84
68939;BMP180;59064;45.294;11.816;2022-11-15T08:54:46;101604.00;;;7.90
68939;BMP180;59064;45.294;11.816;2022-11-15T08:57:12;101594.80;;;7.92
68939;BMP180;59064;45.294;11.816;2022-11-15T08:59:38;101590.40;;;8.10
68939;BMP180;59064;45.294;11.816;2022-11-15T09:02:04;101582.20;;;8.20
68939;BMP180;59064;45.294;11.816;2022-11-15T09:04:31;101584.40;;;8.20
68939;BMP180;59064;45.294;11.816;2022-11-15T09:06:57;101590.00;;;8.30
68939;BMP180;59064;45.294;11.816;2022-11-15T09:09:23;101600.60;;;8.40
68939;BMP180;59064;45.294;11.816;2022-11-15T09:11:49;101607.00;;;8.50
68939;BMP180;59064;45.294;11.816;2022-11-15T09:14:16;101608.20;;;8.64
68939;BMP180;59064;45.294;11.816;2022-11-15T09:16:42;101602.40;;;8.70
68939;BMP180;59064;45.294;11.816;2022-11-15T09:19:07;101603.20;;;8.72
68939;BMP180;59064;45.294;11.816;2022-11-15T09:21:35;101599.80;;;8.80
68939;BMP180;59064;45.294;11.816;2022-11-15T09:24:01;101598.60;;;8.80
68939;BMP180;59064;45.294;11.816;2022-11-15T09:26:29;101597.00;;;8.90
68939;BMP180;59064;45.294;11.816;2022-11-15T09:28:55;101591.80;;;8.80
68939;BMP180;59064;45.294;11.816;2022-11-15T09:31:21;101594.00;;;8.80
68939;BMP180;59064;45.294;11.816;2022-11-15T09:33:46;101595.40;;;8.80
68939;BMP180;59064;45.294;11.816;2022-11-15T09:36:12;101594.40;;;8.80
68939;BMP180;59064;45.294;11.816;2022-11-15T09:38:38;101594.20;;;8.80
68939;BMP180;59064;45.294;11.816;2022-11-15T09:43:42;101596.20;;;9.08
68939;BMP180;59064;45.294;11.816;2022-11-15T09:46:28;101593.60;;;9.20
68939;BMP180;59064;45.294;11.816;2022-11-15T09:48:59;101593.60;;;9.28
68939;BMP180;59064;45.294;11.816;2022-11-15T09:51:32;101592.00;;;9.30
68939;BMP180;59064;45.294;11.816;2022-11-15T09:54:11;101589.00;;;9.40
68939;BMP180;59064;45.294;11.816;2022-11-15T09:56:42;101593.80;;;9.50
68939;BMP180;59064;45.294;11.816;2022-11-15T10:05:04;101575.20;;;9.80
68939;BMP180;59064;45.294;11.816;2022-11-15T10:12:55;101564.40;;;10.20
68939;BMP180;59064;45.294;11.816;2022-11-15T10:15:21;101565.40;;;10.40
68939;BMP180;59064;45.294;11.816;2022-11-15T10:20:24;101563.80;;;10.70
68939;BMP180;59064;45.294;11.816;2022-11-15T10:22:56;101560.80;;;10.82
68939;BMP180;59064;45.294;11.816;2022-11-15T10:25:24;101548.80;;;10.90
68939;BMP180;59064;45.294;11.816;2022-11-15T10:27:57;101550.00;;;11.00
68939;BMP180;59064;45.294;11.816;2022-11-15T10:30:31;101546.80;;;11.00
68939;BMP180;59064;45.294;11.816;2022-11-15T10:32:57;101538.00;;;10.90
68939;BMP180;59064;45.294;11.816;2022-11-15T10:35:25;101529.80;;;10.90
68939;BMP180;59064;45.294;11.816;2022-11-15T10:37:51;101533.20;;;10.78
68939;BMP180;59064;45.294;11.816;2022-11-15T10:40:23;101534.80;;;10.70
68939;BMP180;59064;45.294;11.816;2022-11-15T10:43:05;101537.80;;;10.70
68939;BMP180;59064;45.294;11.816;2022-11-15T10:45:33;101533.20;;;10.60
68939;BMP180;59064;45.294;11.816;2022-11-15T10:50:38;101523.80;;;10.40
68939;BMP180;59064;45.294;11.816;2022-11-15T10:53:23;101518.60;;;10.40
68939;BMP180;59064;45.294;11.816;2022-11-15T10:55:53;101514.00;;;10.52
68939;BMP180;59064;45.294;11.816;2022-11-15T10:58:34;101508.80;;;10.66
68939;BMP180;59064;45.294;11.816;2022-11-15T11:01:13;101505.00;;;10.80
68939;BMP180;59064;45.294;11.816;2022-11-15T11:03:41;101503.20;;;10.90
68939;BMP180;59064;45.294;11.816;2022-11-15T11:06:16;101498.80;;;11.02
68939;BMP180;59064;45.294;11.816;2022-11-15T11:08:55;101498.60;;;11.20
68939;BMP180;59064;45.294;11.816;2022-11-15T11:11:21;101492.00;;;11.32
68939;BMP180;59064;45.294;11.816;2022-11-15T11:13:47;101491.20;;;11.50
68939;BMP180;59064;45.294;11.816;2022-11-15T11:16:41;101488.60;;;11.60
68939;BMP180;59064;45.294;11.816;2022-11-15T11:19:37;101490.00;;;11.70
68939;BMP180;59064;45.294;11.816;2022-11-15T11:22:34;101484.40;;;11.70
68939;BMP180;59064;45.294;11.816;2022-11-15T11:25:11;101476.80;;;11.70
68939;BMP180;59064;45.294;11.816;2022-11-15T11:27:59;101468.60;;;11.76
68939;BMP180;59064;45.294;11.816;2022-11-15T11:30:54;101465.60;;;11.80
68939;BMP180;59064;45.294;11.816;2022-11-15T11:33:32;101461.00;;;11.70
68939;BMP180;59064;45.294;11.816;2022-11-15T11:36:13;101454.20;;;11.60
68939;BMP180;59064;45.294;11.816;2022-11-15T11:41:52;101443.00;;;11.60
68939;BMP180;59064;45.294;11.816;2022-11-15T11:49:46;101442.60;;;11.50
68939;BMP180;59064;45.294;11.816;2022-11-15T11:55:01;101438.20;;;11.40
68939;BMP180;59064;45.294;11.816;2022-11-15T12:00:31;101431.60;;;11.50
68939;BMP180;59064;45.294;11.816;2022-11-15T12:03:10;101427.00;;;11.50
68939;BMP180;59064;45.294;11.816;2022-11-15T12:05:41;101423.40;;;11.50
68939;BMP180;59064;45.294;11.816;2022-11-15T12:11:21;101416.60;;;11.60
68939;BMP180;59064;45.294;11.816;2022-11-15T12:13:56;101413.20;;;11.50
68939;BMP180;59064;45.294;11.816;2022-11-15T12:16:27;101407.20;;;11.50
68939;BMP180;59064;45.294;11.816;2022-11-15T12:18:54;101398.00;;;11.46
68939;BMP180;59064;45.294;11.816;2022-11-15T12:24:19;101390.20;;;11.30
68939;BMP180;59064;45.294;11.816;2022-11-15T12:26:50;101384.60;;;11.30
68939;BMP180;59064;45.294;11.816;2022-11-15T12:29:20;101380.40;;;11.20
68939;BMP180;59064;45.294;11.816;2022-11-15T12:31:54;101375.60;;;11.20
68939;BMP180;59064;45.294;11.816;2022-11-15T12:36:54;101370.20;;;11.00
68939;BMP180;59064;45.294;11.816;2022-11-15T12:39:20;101364.40;;;11.00
68939;BMP180;59064;45.294;11.816;2022-11-15T12:47:24;101352.60;;;10.90
68939;BMP180;59064;45.294;11.816;2022-11-15T12:49:50;101356.60;;;10.90
68939;BMP180;59064;45.294;11.816;2022-11-15T12:52:17;101346.60;;;10.90
68939;BMP180;59064;45.294;11.816;2022-11-15T12:54:49;101340.20;;;10.90
68939;BMP180;59064;45.294;11.816;2022-11-15T12:59:54;101333.40;;;10.80
68939;BMP180;59064;45.294;11.816;2022-11-15T13:02:28;101326.00;;;10.78
68939;BMP180;59064;45.294;11.816;2022-11-15T13:20:16;101321.80;;;10.80
68939;BMP180;59064;45.294;11.816;2022-11-15T13:22:51;101326.40;;;10.90
68939;BMP180;59064;45.294;11.816;2022-11-15T13:25:59;101326.00;;;10.90
68939;BMP180;59064;45.294;11.816;2022-11-15T13:28:52;101324.00;;;10.90
68939;BMP180;59064;45.294;11.816;2022-11-15T13:31:40;101320.20;;;10.90
68939;BMP180;59064;45.294;11.816;2022-11-15T13:36:47;101323.80;;;10.90
68939;BMP180;59064;45.294;11.816;2022-11-15T13:39:25;101324.00;;;10.86
68939;BMP180;59064;45.294;11.816;2022-11-15T13:41:52;101319.40;;;10.80
68939;BMP180;59064;45.294;11.816;2022-11-15T13:44:26;101318.80;;;10.80
68939;BMP180;59064;45.294;11.816;2022-11-15T13:47:16;101313.80;;;10.80
68939;BMP180;59064;45.294;11.816;2022-11-15T13:49:44;101316.00;;;10.80
68939;BMP180;59064;45.294;11.816;2022-11-15T13:52:12;101312.60;;;10.80
68939;BMP180;59064;45.294;11.816;2022-11-15T13:54:55;101313.80;;;10.80
68939;BMP180;59064;45.294;11.816;2022-11-15T13:57:25;101312.40;;;10.80
68939;BMP180;59064;45.294;11.816;2022-11-15T14:02:40;101312.20;;;10.70
68939;BMP180;59064;45.294;11.816;2022-11-15T14:08:21;101304.40;;;10.60
68939;BMP180;59064;45.294;11.816;2022-11-15T14:10:39;101302.40;;;10.60
68939;BMP180;59064;45.294;11.816;2022-11-15T14:13:25;101299.20;;;10.60
68939;BMP180;59064;45.294;11.816;2022-11-15T14:15:51;101298.80;;;10.68
68939;BMP180;59064;45.294;11.816;2022-11-15T14:18:49;101294.00;;;10.70
68939;BMP180;59064;45.294;11.816;2022-11-15T14:21:17;101293.20;;;10.70
68939;BMP180;59064;45.294;11.816;2022-11-15T14:23:43;101292.40;;;10.70
68939;BMP180;59064;45.294;11.816;2022-11-15T14:26:44;101290.60;;;10.68
68939;BMP180;59064;45.294;11.816;2022-11-15T14:29:27;101282.40;;;10.60
68939;BMP180;59064;45.294;11.816;2022-11-15T14:32:05;101283.40;;;10.50
68939;BMP180;59064;45.294;11.816;2022-11-15T14:34:32;101284.80;;;10.50
68939;BMP180;59064;45.294;11.816;2022-11-15T14:36:58;101282.80;;;10.50
68939;BMP180;59064;45.294;11.816;2022-11-15T14:39:23;101281.00;;;10.50
68939;BMP180;59064;45.294;11.816;2022-11-15T14:41:50;101279.20;;;10.50
68939;BMP180;59064;45.294;11.816;2022-11-15T14:44:16;101276.20;;;10.40
68939;BMP180;59064;45.294;11.816;2022-11-15T14:46:44;101275.40;;;10.40
68939;BMP180;59064;45.294;11.816;2022-11-15T14:49:10;101274.20;;;10.40
68939;BMP180;59064;45.294;11.816;2022-11-15T14:51:36;101272.60;;;10.40
68939;BMP180;59064;45.294;11.816;2022-11-15T14:54:02;101264.80;;;10.40
68939;BMP180;59064;45.294;11.816;2022-11-15T14:56:29;101263.60;;;10.40
68939;BMP180;59064;45.294;11.816;2022-11-15T14:58:56;101259.40;;;10.40
68939;BMP180;59064;45.294;11.816;2022-11-15T15:01:25;101248.40;;;10.40
68939;BMP180;59064;45.294;11.816;2022-11-15T15:03:52;101244.40;;;10.40
68939;BMP180;59064;45.294;11.816;2022-11-15T15:06:22;101247.00;;;10.40
68939;BMP180;59064;45.294;11.816;2022-11-15T15:08:50;101246.80;;;10.40
68939;BMP180;59064;45.294;11.816;2022-11-15T15:11:28;101243.20;;;10.34
68939;BMP180;59064;45.294;11.816;2022-11-15T15:13:54;101246.40;;;10.30
68939;BMP180;59064;45.294;11.816;2022-11-15T15:16:23;101238.60;;;10.30
68939;BMP180;59064;45.294;11.816;2022-11-15T15:18:49;101233.00;;;10.30
68939;BMP180;59064;45.294;11.816;2022-11-15T15:21:26;101237.00;;;10.30
68939;BMP180;59064;45.294;11.816;2022-11-15T15:23:53;101232.60;;;10.30
68939;BMP180;59064;45.294;11.816;2022-11-15T15:26:20;101236.00;;;10.30
68939;BMP180;59064;45.294;11.816;2022-11-15T15:28:46;101233.60;;;10.34
68939;BMP180;59064;45.294;11.816;2022-11-15T15:31:14;101231.40;;;10.38
68939;BMP180;59064;45.294;11.816;2022-11-15T15:33:40;101230.80;;;10.38
68939;BMP180;59064;45.294;11.816;2022-11-15T15:36:13;101231.20;;;10.30
68939;BMP180;59064;45.294;11.816;2022-11-15T15:38:39;101230.20;;;10.30
68939;BMP180;59064;45.294;11.816;2022-11-15T15:41:11;101225.00;;;10.30
68939;BMP180;59064;45.294;11.816;2022-11-15T15:43:37;101220.00;;;10.30
68939;BMP180;59064;45.294;11.816;2022-11-15T15:46:02;101216.40;;;10.30
68939;BMP180;59064;45.294;11.816;2022-11-15T15:48:28;101214.80;;;10.30
68939;BMP180;59064;45.294;11.816;2022-11-15T15:50:53;101218.00;;;10.28
68939;BMP180;59064;45.294;11.816;2022-11-15T15:53:19;101218.40;;;10.28
68939;BMP180;59064;45.294;11.816;2022-11-15T15:55:45;101223.20;;;10.30